VIR73Q EGCC-KMCO
Flight info
| Callsign | VIR73Q |
|---|---|
| Flight time | N/A |
| Altitude | 34000 |
| Route | EKLAD UY53 WAL L10 PENIL M144 BAGSO DCT RESNO/M086F340 DCT 5530N02000W 5630N03000W 5530N04000W 5130N05000W DCT UMESI DCT CARAC M201 VEGAA Y493 TUBBS/N0501F340 Y493 BAHAA DCT HIBAC ALYNA4 |
| Aircraft | B789/H-SDE1E2E3FGHIJ2J3J4J5M1RWXY/LB1D1 |
Departure
| Time | N/A |
|---|---|
| Airport | Manchester Airport (EGCC) |
Arrival
| Time | 2026-04-20 18:13 |
|---|---|
| Airport | Orlando International Airport (KMCO) |
| Time | Latitude | Longitude | Altitude | Speed | Heading |
|---|---|---|---|---|---|
| 2026-04-20 17:46 | 29.23118 | -79.42032 | 40003 ft | 485 kts | 223° |
| 2026-04-20 17:46 | 29.18205 | -79.47328 | 40000 ft | 485 kts | 223° |
| 2026-04-20 17:47 | 29.13292 | -79.52618 | 40000 ft | 485 kts | 224° |
| 2026-04-20 17:47 | 29.11051 | -79.55479 | 40027 ft | 484 kts | 235° |
| 2026-04-20 17:47 | 29.09353 | -79.58798 | 40026 ft | 485 kts | 246° |
| 2026-04-20 17:47 | 29.08256 | -79.62447 | 40028 ft | 486 kts | 257° |
| 2026-04-20 17:48 | 29.07457 | -79.66208 | 40015 ft | 487 kts | 256° |
| 2026-04-20 17:48 | 29.05920 | -79.73739 | 40012 ft | 486 kts | 257° |
| 2026-04-20 17:49 | 29.04357 | -79.81251 | 40012 ft | 485 kts | 256° |
| 2026-04-20 17:49 | 29.02802 | -79.88746 | 40004 ft | 483 kts | 257° |
| 2026-04-20 17:49 | 29.02031 | -79.92462 | 39350 ft | 482 kts | 257° |
| 2026-04-20 17:50 | 29.01249 | -79.96202 | 38567 ft | 484 kts | 256° |
| 2026-04-20 17:50 | 29.00466 | -79.99943 | 37852 ft | 484 kts | 256° |
| 2026-04-20 17:50 | 28.99686 | -80.03678 | 37140 ft | 483 kts | 256° |
| 2026-04-20 17:50 | 28.98906 | -80.07406 | 36419 ft | 482 kts | 256° |
| 2026-04-20 17:51 | 28.98126 | -80.11125 | 35409 ft | 485 kts | 256° |
| 2026-04-20 17:51 | 28.97339 | -80.14868 | 34662 ft | 484 kts | 256° |
| 2026-04-20 17:51 | 28.96555 | -80.18596 | 33861 ft | 482 kts | 256° |
| 2026-04-20 17:51 | 28.95773 | -80.22311 | 33021 ft | 481 kts | 256° |
| 2026-04-20 17:52 | 28.95255 | -80.24768 | 32460 ft | 480 kts | 256° |
| 2026-04-20 17:52 | 28.94218 | -80.29673 | 31271 ft | 479 kts | 256° |
| 2026-04-20 17:52 | 28.93436 | -80.33373 | 30334 ft | 480 kts | 256° |
| 2026-04-20 17:52 | 28.92649 | -80.37084 | 29363 ft | 481 kts | 256° |
| 2026-04-20 17:53 | 28.91862 | -80.40797 | 28388 ft | 481 kts | 256° |
| 2026-04-20 17:53 | 28.91077 | -80.44492 | 27429 ft | 478 kts | 256° |
| 2026-04-20 17:53 | 28.90296 | -80.48158 | 26493 ft | 474 kts | 256° |
| 2026-04-20 17:53 | 28.89520 | -80.51801 | 25570 ft | 470 kts | 256° |
| 2026-04-20 17:54 | 28.89000 | -80.54240 | 24950 ft | 466 kts | 256° |
| 2026-04-20 17:54 | 28.88236 | -80.57815 | 24044 ft | 461 kts | 256° |
| 2026-04-20 17:54 | 28.87481 | -80.61347 | 23151 ft | 456 kts | 256° |
| 2026-04-20 17:54 | 28.86733 | -80.64838 | 22271 ft | 450 kts | 256° |
| 2026-04-20 17:55 | 28.85994 | -80.68284 | 21400 ft | 444 kts | 256° |
| 2026-04-20 17:55 | 28.85265 | -80.71677 | 20562 ft | 437 kts | 256° |
| 2026-04-20 17:55 | 28.84546 | -80.75022 | 19715 ft | 431 kts | 256° |
| 2026-04-20 17:55 | 28.83838 | -80.78312 | 18895 ft | 424 kts | 256° |
| 2026-04-20 17:56 | 28.83139 | -80.81554 | 18087 ft | 417 kts | 256° |
| 2026-04-20 17:56 | 28.82461 | -80.84694 | 17305 ft | 410 kts | 256° |
| 2026-04-20 17:56 | 28.81783 | -80.87830 | 16525 ft | 404 kts | 256° |
| 2026-04-20 17:56 | 28.81117 | -80.90910 | 15761 ft | 397 kts | 256° |
| 2026-04-20 17:57 | 28.80461 | -80.93937 | 15012 ft | 390 kts | 256° |
| 2026-04-20 17:57 | 28.79817 | -80.96911 | 14279 ft | 383 kts | 256° |
| 2026-04-20 17:57 | 28.79180 | -80.99843 | 13549 ft | 378 kts | 256° |
| 2026-04-20 17:57 | 28.78432 | -81.02679 | 12911 ft | 369 kts | 245° |
| 2026-04-20 17:58 | 28.77069 | -81.05066 | 12644 ft | 350 kts | 232° |
| 2026-04-20 17:58 | 28.75613 | -81.07184 | 12529 ft | 330 kts | 231° |
| 2026-04-20 17:58 | 28.74201 | -81.09149 | 12391 ft | 311 kts | 231° |
| 2026-04-20 17:58 | 28.72872 | -81.11013 | 12275 ft | 295 kts | 231° |
| 2026-04-20 17:59 | 28.71612 | -81.12811 | 12090 ft | 291 kts | 231° |
| 2026-04-20 17:59 | 28.70093 | -81.14331 | 11775 ft | 294 kts | 208° |
| 2026-04-20 17:59 | 28.68150 | -81.15063 | 11345 ft | 294 kts | 193° |
| 2026-04-20 17:59 | 28.66158 | -81.15581 | 10975 ft | 293 kts | 193° |
| 2026-04-20 18:00 | 28.64171 | -81.16076 | 10619 ft | 291 kts | 193° |
| 2026-04-20 18:00 | 28.62201 | -81.16585 | 10263 ft | 289 kts | 193° |
| 2026-04-20 18:00 | 28.60251 | -81.17098 | 9911 ft | 284 kts | 193° |
| 2026-04-20 18:00 | 28.58350 | -81.17595 | 9564 ft | 277 kts | 193° |
| 2026-04-20 18:01 | 28.56486 | -81.18078 | 9224 ft | 271 kts | 193° |
| 2026-04-20 18:01 | 28.54668 | -81.18540 | 8892 ft | 265 kts | 191° |
| 2026-04-20 18:01 | 28.52852 | -81.18610 | 8560 ft | 260 kts | 179° |
| 2026-04-20 18:01 | 28.51042 | -81.18630 | 8261 ft | 259 kts | 181° |
| 2026-04-20 18:02 | 28.49248 | -81.18670 | 7946 ft | 257 kts | 181° |
| 2026-04-20 18:02 | 28.47461 | -81.18688 | 7640 ft | 256 kts | 181° |
| 2026-04-20 18:02 | 28.45682 | -81.18699 | 7322 ft | 255 kts | 181° |
| 2026-04-20 18:02 | 28.43913 | -81.18711 | 7013 ft | 254 kts | 181° |
| 2026-04-20 18:03 | 28.42151 | -81.18727 | 6703 ft | 252 kts | 181° |
| 2026-04-20 18:03 | 28.40398 | -81.18782 | 6396 ft | 251 kts | 182° |
| 2026-04-20 18:03 | 28.38654 | -81.18866 | 6085 ft | 251 kts | 183° |
| 2026-04-20 18:03 | 28.36917 | -81.18954 | 5781 ft | 250 kts | 183° |
| 2026-04-20 18:04 | 28.35194 | -81.19042 | 5478 ft | 245 kts | 183° |
| 2026-04-20 18:04 | 28.33510 | -81.19128 | 5183 ft | 240 kts | 183° |
| 2026-04-20 18:04 | 28.31856 | -81.19214 | 4880 ft | 236 kts | 183° |
| 2026-04-20 18:04 | 28.30249 | -81.19295 | 4762 ft | 225 kts | 183° |
| 2026-04-20 18:05 | 28.27123 | -81.19453 | 4767 ft | 225 kts | 183° |
| 2026-04-20 18:05 | 28.25601 | -81.19803 | 4767 ft | 223 kts | 200° |
| 2026-04-20 18:05 | 28.24149 | -81.20448 | 4763 ft | 224 kts | 202° |
| 2026-04-20 18:06 | 28.22707 | -81.21122 | 4766 ft | 224 kts | 203° |
| 2026-04-20 18:06 | 28.21291 | -81.21846 | 4741 ft | 223 kts | 213° |
| 2026-04-20 18:06 | 28.20200 | -81.23084 | 4774 ft | 224 kts | 230° |
| 2026-04-20 18:06 | 28.19222 | -81.24450 | 4765 ft | 220 kts | 232° |
| 2026-04-20 18:07 | 28.18623 | -81.25971 | 4600 ft | 207 kts | 267° |
| 2026-04-20 18:07 | 28.18824 | -81.27550 | 4339 ft | 200 kts | 283° |
| 2026-04-20 18:07 | 28.19161 | -81.29064 | 3992 ft | 198 kts | 285° |
| 2026-04-20 18:07 | 28.19824 | -81.30403 | 3769 ft | 193 kts | 311° |
| 2026-04-20 18:08 | 28.20782 | -81.31486 | 3784 ft | 198 kts | 315° |
| 2026-04-20 18:08 | 28.21966 | -81.32188 | 3737 ft | 199 kts | 354° |
| 2026-04-20 18:08 | 28.23349 | -81.32062 | 3609 ft | 200 kts | 3° |
| 2026-04-20 18:08 | 28.24713 | -81.32036 | 3367 ft | 193 kts | 360° |
| 2026-04-20 18:09 | 28.26036 | -81.32042 | 3106 ft | 189 kts | 359° |
| 2026-04-20 18:09 | 28.27340 | -81.32054 | 2857 ft | 186 kts | 359° |
| 2026-04-20 18:09 | 28.28633 | -81.32065 | 2610 ft | 183 kts | 359° |
| 2026-04-20 18:09 | 28.29848 | -81.32077 | 2369 ft | 164 kts | 359° |
| 2026-04-20 18:10 | 28.30959 | -81.32085 | 2153 ft | 156 kts | 359° |
| 2026-04-20 18:10 | 28.32011 | -81.32096 | 1948 ft | 147 kts | 358° |
| 2026-04-20 18:10 | 28.33021 | -81.32108 | 1742 ft | 144 kts | 359° |
| 2026-04-20 18:10 | 28.34011 | -81.32117 | 1581 ft | 144 kts | 359° |
| 2026-04-20 18:11 | 28.35007 | -81.32130 | 1382 ft | 142 kts | 359° |
| 2026-04-20 18:11 | 28.36004 | -81.32140 | 1197 ft | 144 kts | 358° |
| 2026-04-20 18:11 | 28.36994 | -81.32149 | 1006 ft | 143 kts | 358° |
| 2026-04-20 18:11 | 28.37996 | -81.32158 | 807 ft | 142 kts | 357° |
| 2026-04-20 18:12 | 28.38978 | -81.32161 | 632 ft | 141 kts | 353° |
| 2026-04-20 18:12 | 28.39963 | -81.32182 | 461 ft | 142 kts | 356° |
| 2026-04-20 18:12 | 28.40949 | -81.32181 | 258 ft | 141 kts | 355° |
| 2026-04-20 18:12 | 28.41923 | -81.32176 | 107 ft | 138 kts | 352° |
| 2026-04-20 18:13 | 28.42732 | -81.32206 | 104 ft | 95 kts | 359° |
| 2026-04-20 18:13 | 28.43266 | -81.32211 | 101 ft | 63 kts | 359° |
| 2026-04-20 18:13 | 28.43669 | -81.32217 | 105 ft | 47 kts | 359° |
| 2026-04-20 18:13 | 28.43907 | -81.32197 | 107 ft | 19 kts | 32° |
| 2026-04-20 18:14 | 28.43986 | -81.32062 | 107 ft | 22 kts | 80° |
| 2026-04-20 18:14 | 28.43954 | -81.31933 | 109 ft | 16 kts | 115° |
| 2026-04-20 18:14 | 28.43931 | -81.31813 | 107 ft | 16 kts | 98° |
| 2026-04-20 18:14 | 28.43905 | -81.31707 | 105 ft | 10 kts | 140° |
| 2026-04-20 18:15 | 28.43835 | -81.31685 | 106 ft | 11 kts | 163° |
| 2026-04-20 18:15 | 28.43764 | -81.31640 | 106 ft | 13 kts | 148° |
| 2026-04-20 18:15 | 28.43716 | -81.31550 | 104 ft | 15 kts | 103° |
| 2026-04-20 18:15 | 28.43699 | -81.31460 | 103 ft | 8 kts | 102° |
| 2026-04-20 18:16 | 28.43686 | -81.31406 | 104 ft | 6 kts | 115° |
| 2026-04-20 18:16 | 28.43654 | -81.31374 | 104 ft | 5 kts | 161° |
| 2026-04-20 18:16 | 28.43638 | -81.31378 | 104 ft | 2 kts | 195° |
| 2026-04-20 18:16 | 28.43613 | -81.31380 | 105 ft | 3 kts | 173° |
| 2026-04-20 18:17 | 28.43598 | -81.31371 | 105 ft | 4 kts | 156° |
| 2026-04-20 18:17 | 28.43573 | -81.31356 | 105 ft | 0 kts | 152° |
| 2026-04-20 18:17 | 28.43572 | -81.31355 | 105 ft | 0 kts | 152° |